Time;durP1;ratioP1;P1;durP2;ratioP2;P2;SDS_P1;SDS_P2;PMS_P1;PMS_P2;Temp;Humidity;BMP_temperature;BMP_pressure;BME280_temperature;BME280_humidity;BME280_pressure;Samples;Min_cycle;Max_cycle;Signal;HPM_P1;HPM_P2
2022/04/18 00:01:37;;;;;;;13.38;7.63;;;;;;;9.88;57.56;101976.13;5069772;28;20041;-62
2022/04/18 00:04:02;;;;;;;11.88;7.63;;;;;;;9.88;58.54;101964.69;5054093;28;20395;-62
2022/04/18 00:06:28;;;;;;;18.38;8.68;;;;;;;9.83;58.29;101972.72;5054399;28;20027;-62
2022/04/18 00:08:53;;;;;;;11.40;7.47;;;;;;;9.80;57.75;101963.06;5057064;28;20772;-62
2022/04/18 00:11:18;;;;;;;12.90;8.20;;;;;;;9.79;57.83;101963.97;5054123;28;20055;-62
2022/04/18 00:13:44;;;;;;;11.05;7.70;;;;;;;9.80;57.14;101959.56;5057696;28;20170;-62
2022/04/18 00:16:09;;;;;;;12.13;8.00;;;;;;;9.76;58.19;101957.91;5054500;28;20054;-63
2022/04/18 00:18:34;;;;;;;12.43;7.95;;;;;;;9.73;57.71;101961.50;5053720;28;20024;-62
2022/04/18 00:21:00;;;;;;;11.95;7.72;;;;;;;9.68;57.76;101960.72;5052964;28;20060;-62
2022/04/18 00:23:25;;;;;;;11.20;7.50;;;;;;;9.65;58.33;101958.13;5053965;28;20115;-62
2022/04/18 00:25:51;;;;;;;11.85;7.95;;;;;;;9.61;59.07;101957.34;5056831;28;20694;-63
2022/04/18 00:28:16;;;;;;;11.38;7.70;;;;;;;9.54;59.34;101953.09;5078250;28;20475;-62
2022/04/18 00:30:42;;;;;;;12.02;8.02;;;;;;;9.46;59.58;101952.41;5052770;28;20033;-62
2022/04/18 00:33:09;;;;;;;13.85;8.20;;;;;;;9.35;59.34;101957.94;5055259;28;20459;-63
2022/04/18 00:35:34;;;;;;;12.40;8.23;;;;;;;9.24;60.61;101957.28;5053878;28;20036;-62
2022/04/18 00:38:00;;;;;;;13.20;7.78;;;;;;;9.18;61.57;101961.81;5052187;28;20132;-62
2022/04/18 00:40:25;;;;;;;12.20;7.97;;;;;;;9.12;60.96;101953.16;5063307;28;20055;-61
2022/04/18 00:42:51;;;;;;;12.98;7.93;;;;;;;9.14;61.29;101948.69;5053572;28;20029;-62
2022/04/18 00:45:16;;;;;;;14.18;8.50;;;;;;;9.15;60.82;101953.91;5053835;28;20388;-62
2022/04/18 00:47:41;;;;;;;12.55;8.40;;;;;;;9.15;61.50;101958.34;5055659;28;20123;-62
2022/04/18 00:50:07;;;;;;;10.85;7.53;;;;;;;9.14;61.63;101951.31;5048829;28;20033;-62
2022/04/18 00:52:33;;;;;;;13.95;8.65;;;;;;;9.12;61.07;101948.72;5053041;28;20036;-62
2022/04/18 00:55:02;;;;;;;11.95;8.52;;;;;;;9.13;61.45;101946.94;5047783;28;20122;-61
2022/04/18 00:57:28;;;;;;;15.10;8.23;;;;;;;9.13;61.07;101947.81;5068889;28;20024;-62
2022/04/18 00:59:54;;;;;;;12.88;8.38;;;;;;;9.08;61.54;101943.50;5053123;28;20032;-62
2022/04/18 01:02:19;;;;;;;12.73;9.05;;;;;;;9.08;61.41;101951.44;5059535;28;20120;-62
2022/04/18 01:04:45;;;;;;;12.45;8.32;;;;;;;9.09;61.07;101942.63;5052885;28;20412;-63
2022/04/18 01:07:12;;;;;;;14.38;8.60;;;;;;;9.09;61.21;101942.63;5049047;28;20031;-62
2022/04/18 01:09:38;;;;;;;15.13;9.02;;;;;;;9.05;60.58;101940.94;5053011;28;20024;-63
2022/04/18 01:12:04;;;;;;;12.18;7.95;;;;;;;8.96;61.08;101934.06;5056483;28;20028;-63
2022/04/18 01:14:30;;;;;;;12.18;8.27;;;;;;;8.83;61.78;101936.09;5052852;28;20452;-63
2022/04/18 01:16:55;;;;;;;16.95;8.90;;;;;;;8.74;62.04;101937.16;5055492;28;20028;-63
2022/04/18 01:19:20;;;;;;;14.82;8.93;;;;;;;8.65;63.03;101932.91;5053353;28;20359;-61
2022/04/18 01:21:46;;;;;;;12.60;8.88;;;;;;;8.62;64.14;101929.44;5055419;28;20025;-61
2022/04/18 01:29:39;;;;;;;13.43;8.82;;;;;;;8.55;66.90;101935.75;5052995;28;20151;-62
2022/04/18 01:32:05;;;;;;;13.00;9.38;;;;;;;8.52;67.76;101927.00;5052900;28;20028;-62
2022/04/18 01:34:31;;;;;;;13.18;8.82;;;;;;;8.53;67.03;101936.66;5052828;28;20031;-62
2022/04/18 01:36:57;;;;;;;11.10;8.32;;;;;;;8.51;66.44;101925.25;5038629;28;20044;-62
2022/04/18 01:39:22;;;;;;;13.82;8.13;;;;;;;8.55;65.93;101926.06;5052266;28;20036;-63
2022/04/18 01:41:47;;;;;;;12.50;9.05;;;;;;;8.60;65.41;101926.00;5052488;28;20032;-63
2022/04/18 01:44:13;;;;;;;12.10;8.85;;;;;;;8.63;64.56;101933.84;5052598;28;20048;-63
2022/04/18 01:46:38;;;;;;;14.23;9.05;;;;;;;8.62;65.36;101926.81;5053523;28;20079;-62
2022/04/18 01:49:04;;;;;;;14.25;8.45;;;;;;;8.58;65.12;101926.03;5055177;28;20037;-63
2022/04/18 01:51:29;;;;;;;14.32;8.75;;;;;;;8.57;65.11;101933.94;5051903;28;20515;-62
2022/04/18 01:53:54;;;;;;;14.85;8.93;;;;;;;8.50;65.54;101926.16;5052069;28;20424;-62
2022/04/18 01:56:20;;;;;;;13.45;8.40;;;;;;;8.44;65.86;101925.34;5054258;28;20052;-62
2022/04/18 01:58:45;;;;;;;13.52;8.73;;;;;;;8.35;66.73;101924.63;5052204;28;20502;-62
2022/04/18 02:01:11;;;;;;;14.10;8.82;;;;;;;8.32;66.91;101923.81;5052531;28;20028;-62
2022/04/18 02:03:40;;;;;;;13.00;8.77;;;;;;;8.29;67.05;101921.25;5052115;28;20463;-64
2022/04/18 02:06:06;;;;;;;12.38;8.50;;;;;;;8.25;67.26;101915.16;5052186;28;20035;-62
2022/04/18 02:08:32;;;;;;;12.25;7.90;;;;;;;8.28;66.75;101911.59;5051846;28;20028;-63
2022/04/18 02:10:57;;;;;;;13.38;8.88;;;;;;;8.25;67.15;101911.63;5052311;28;20048;-62
2022/04/18 02:13:25;;;;;;;12.73;7.97;;;;;;;8.29;66.75;101910.69;5051634;28;20032;-62
2022/04/18 02:15:50;;;;;;;12.13;7.93;;;;;;;8.30;66.64;101912.41;5051922;28;20494;-63
2022/04/18 02:18:15;;;;;;;15.32;8.20;;;;;;;8.31;66.65;101914.16;5054166;28;20018;-63
2022/04/18 02:20:41;;;;;;;12.65;8.20;;;;;;;8.30;66.67;101921.22;5067191;28;20033;-63
2022/04/18 02:23:06;;;;;;;13.52;8.40;;;;;;;8.28;65.69;101908.94;5051583;28;20029;-63
2022/04/18 02:25:32;;;;;;;11.18;7.72;;;;;;;8.24;65.19;101910.75;5053864;28;20029;-63
2022/04/18 02:27:58;;;;;;;11.68;8.20;;;;;;;8.15;65.72;101911.78;5052048;28;20041;-62
2022/04/18 02:30:24;;;;;;;13.90;8.48;;;;;;;8.04;66.72;101906.72;5051467;28;20056;-62
2022/04/18 02:32:52;;;;;;;14.43;8.85;;;;;;;7.98;67.96;101909.44;5051731;28;20140;-62
2022/04/18 02:35:20;;;;;;;11.43;7.65;;;;;;;7.96;68.75;101907.75;5051430;28;20033;-62
2022/04/18 02:37:46;;;;;;;12.95;7.97;;;;;;;7.98;67.78;101908.56;5051468;28;20137;-62
2022/04/18 02:40:12;;;;;;;12.23;8.18;;;;;;;8.00;67.12;101912.06;5052696;28;20036;-62
2022/04/18 02:42:38;;;;;;;12.07;8.05;;;;;;;8.02;67.11;101916.41;5051738;28;20036;-63
2022/04/18 02:45:04;;;;;;;9.95;7.55;;;;;;;8.02;66.94;101913.78;5066203;28;20021;-62
2022/04/18 02:47:29;;;;;;;12.40;8.10;;;;;;;7.95;66.54;101898.94;5049603;28;20039;-62
2022/04/18 02:49:55;;;;;;;11.23;7.82;;;;;;;7.90;66.58;101900.78;5058613;28;20044;-63
2022/04/18 02:52:20;;;;;;;10.77;7.20;;;;;;;7.84;66.86;101899.13;5051728;28;20029;-63
2022/04/18 02:54:46;;;;;;;11.52;7.25;;;;;;;7.81;67.42;101895.66;5050422;28;20051;-62
2022/04/18 02:57:12;;;;;;;10.57;7.07;;;;;;;7.80;67.91;101893.91;5049839;28;20051;-63
2022/04/18 02:59:38;;;;;;;10.95;7.60;;;;;;;7.75;67.52;101898.41;5051533;28;20024;-63
2022/04/18 03:02:04;;;;;;;11.23;6.75;;;;;;;7.69;67.60;101897.59;5037213;28;20048;-62
2022/04/18 03:04:29;;;;;;;12.10;6.88;;;;;;;7.69;68.79;101894.97;5051205;28;20033;-63
2022/04/18 03:06:55;;;;;;;12.82;6.60;;;;;;;7.74;67.22;101897.53;5049634;28;20028;-62
2022/04/18 03:09:20;;;;;;;9.98;6.35;;;;;;;7.78;66.76;101901.00;5054753;28;20110;-62
2022/04/18 03:11:46;;;;;;;13.20;6.68;;;;;;;7.79;66.31;101889.56;5049265;28;20033;-63
2022/04/18 03:14:11;;;;;;;8.70;6.32;;;;;;;7.75;66.84;101886.09;5053368;28;20032;-63
2022/04/18 03:16:36;;;;;;;9.23;6.13;;;;;;;7.75;66.77;101891.38;5049977;28;20032;-62
2022/04/18 03:19:02;;;;;;;10.82;6.07;;;;;;;7.71;66.90;101881.75;5050013;28;20107;-62
2022/04/18 03:21:27;;;;;;;10.25;6.18;;;;;;;7.73;66.80;101881.75;5064195;28;20033;-62
2022/04/18 03:23:53;;;;;;;10.65;6.40;;;;;;;7.71;66.43;101874.72;5055243;28;20036;-62
2022/04/18 03:26:19;;;;;;;10.00;6.18;;;;;;;7.65;66.91;101880.09;5055173;28;20275;-63
2022/04/18 03:28:44;;;;;;;10.32;6.10;;;;;;;7.62;67.10;101880.16;5055250;28;20059;-63
2022/04/18 03:31:09;;;;;;;8.90;6.00;;;;;;;7.59;66.94;101869.63;5039094;28;20475;-62
2022/04/18 03:33:35;;;;;;;9.98;6.10;;;;;;;7.60;67.16;101875.81;5040828;28;20048;-62
2022/04/18 03:41:28;;;;;;;8.88;5.45;;;;;;;7.46;68.28;101857.56;5068028;28;21787;-62
2022/04/18 03:43:53;;;;;;;8.93;5.90;;;;;;;7.49;68.29;101861.03;5059254;28;20041;-63
2022/04/18 03:46:19;;;;;;;8.82;5.75;;;;;;;7.47;68.25;101854.91;5061229;28;20029;-63
2022/04/18 03:48:44;;;;;;;11.13;5.90;;;;;;;7.48;68.89;101866.31;5040585;28;20448;-63
2022/04/18 03:51:10;;;;;;;9.60;6.05;;;;;;;7.43;70.39;101868.13;5054094;28;20041;-63
2022/04/18 03:53:35;;;;;;;9.18;6.00;;;;;;;7.34;71.48;101866.50;5054751;28;20469;-63
2022/04/18 03:56:00;;;;;;;8.65;5.97;;;;;;;7.24;72.42;101859.63;5059061;28;20036;-63
2022/04/18 03:58:26;;;;;;;10.95;6.07;;;;;;;7.18;73.10;101860.59;5057994;28;20029;-63
2022/04/18 04:00:51;;;;;;;10.50;6.18;;;;;;;7.14;73.47;101857.13;5057926;28;20049;-62
2022/04/18 04:03:16;;;;;;;9.80;6.07;;;;;;;7.12;73.59;101866.81;5057815;28;20020;-63
2022/04/18 04:05:42;;;;;;;8.93;6.10;;;;;;;7.10;73.19;101860.72;5053914;28;20076;-63
2022/04/18 04:08:08;;;;;;;9.13;5.65;;;;;;;7.09;73.44;101869.50;5058340;28;20040;-63
2022/04/18 04:10:33;;;;;;;8.00;5.70;;;;;;;7.11;72.49;101875.63;5054204;28;20115;-63
2022/04/18 04:12:59;;;;;;;8.93;5.63;;;;;;;7.14;70.83;101872.09;5053993;28;20111;-63
2022/04/18 04:15:24;;;;;;;10.52;5.90;;;;;;;7.11;70.32;101880.91;5045523;28;20033;-63
2022/04/18 04:17:50;;;;;;;8.25;5.30;;;;;;;7.10;69.95;101879.16;5054287;28;20112;-63
2022/04/18 04:20:16;;;;;;;8.55;5.30;;;;;;;7.04;70.81;101876.59;5054846;28;20036;-63
2022/04/18 04:22:45;;;;;;;10.00;5.72;;;;;;;7.07;71.09;101894.13;5054012;28;20039;-63
2022/04/18 04:25:10;;;;;;;8.05;5.50;;;;;;;7.12;70.36;101894.94;5053800;28;20147;-62
2022/04/18 04:27:36;;;;;;;8.27;5.20;;;;;;;7.17;69.32;101885.19;5053929;28;20033;-62
2022/04/18 04:30:01;;;;;;;7.97;5.47;;;;;;;7.17;69.50;101883.44;5052349;28;20441;-63
2022/04/18 04:32:27;;;;;;;10.30;5.57;;;;;;;7.07;69.44;101887.06;5052176;28;20571;-61
2022/04/18 04:34:52;;;;;;;8.60;5.50;;;;;;;6.99;70.21;101875.78;5053681;28;20120;-62
2022/04/18 04:37:17;;;;;;;11.57;6.13;;;;;;;6.94;71.81;101883.72;5055873;28;20439;-63
2022/04/18 04:39:43;;;;;;;11.13;6.50;;;;;;;6.93;72.17;101887.28;5058865;28;20075;-63
2022/04/18 04:42:08;;;;;;;16.40;7.93;;;;;;;6.99;71.68;101881.91;5053069;28;20021;-63
2022/04/18 04:44:34;;;;;;;11.65;6.60;;;;;;;6.96;72.21;101876.69;5055526;28;20082;-62
2022/04/18 04:46:59;;;;;;;11.57;6.53;;;;;;;6.95;73.10;101867.06;5053319;28;20060;-63
2022/04/18 04:49:25;;;;;;;10.45;5.90;;;;;;;6.99;74.17;101871.38;5053270;28;20037;-63
2022/04/18 04:51:50;;;;;;;9.43;5.35;;;;;;;7.01;73.80;101872.25;5041219;28;20108;-62
2022/04/18 04:54:16;;;;;;;9.75;5.82;;;;;;;7.03;72.10;101867.84;5055624;28;20041;-62
2022/04/18 04:56:41;;;;;;;8.20;5.50;;;;;;;7.14;71.39;101877.34;5052561;28;20112;-62
2022/04/18 04:59:07;;;;;;;6.93;4.93;;;;;;;7.24;70.74;101860.53;5058171;28;20390;-62
2022/04/18 05:01:33;;;;;;;10.63;5.05;;;;;;;7.26;70.75;101861.34;5056642;28;20095;-62
2022/04/18 05:03:58;;;;;;;8.23;4.90;;;;;;;7.29;71.07;101860.44;5057835;28;20021;-63
2022/04/18 05:06:24;;;;;;;6.95;4.75;;;;;;;7.33;70.53;101863.00;5040979;28;20178;-63
2022/04/18 05:08:49;;;;;;;7.00;4.57;;;;;;;7.41;70.77;101857.63;5058735;28;20044;-63
2022/04/18 05:11:15;;;;;;;8.07;4.78;;;;;;;7.53;70.65;101860.06;5057055;28;20032;-62
2022/04/18 05:13:40;;;;;;;8.15;4.38;;;;;;;7.60;69.29;101852.94;5067226;28;20081;-62
2022/04/18 05:16:05;;;;;;;6.90;4.03;;;;;;;7.75;68.00;101858.84;5057829;28;20442;-62
2022/04/18 05:18:31;;;;;;;5.93;4.07;;;;;;;7.84;67.40;101856.06;5056763;28;20037;-62
2022/04/18 05:20:57;;;;;;;7.68;4.72;;;;;;;7.93;67.83;101848.00;5039895;28;20056;-62
2022/04/18 05:23:22;;;;;;;6.53;4.88;;;;;;;8.03;67.71;101854.84;5055670;28;20067;-63
2022/04/18 05:25:48;;;;;;;7.10;4.25;;;;;;;8.13;67.77;101860.84;5057605;28;20060;-63
2022/04/18 05:28:13;;;;;;;8.77;4.47;;;;;;;8.24;66.10;101855.34;5057930;28;20028;-62
2022/04/18 05:30:39;;;;;;;8.23;5.10;;;;;;;8.32;65.53;101871.91;5056405;28;20028;-62
2022/04/18 05:33:06;;;;;;;9.82;5.28;;;;;;;8.41;65.52;101868.22;5044975;28;20028;-63
2022/04/18 05:35:31;;;;;;;11.98;6.90;;;;;;;8.49;64.54;101873.38;5057463;28;20487;-62
2022/04/18 05:37:57;;;;;;;14.98;7.65;;;;;;;8.56;64.74;101869.72;5056278;28;20059;-63
2022/04/18 05:40:22;;;;;;;9.93;5.90;;;;;;;8.65;64.52;101869.53;5057707;28;20492;-63
2022/04/18 05:42:47;;;;;;;13.35;6.07;;;;;;;8.69;65.51;101858.00;5055479;28;20043;-63
2022/04/18 05:45:13;;;;;;;8.55;5.50;;;;;;;8.77;65.71;101857.88;5056195;28;20029;-64
2022/04/18 05:47:38;;;;;;;9.60;5.13;;;;;;;8.84;64.93;101869.16;5055966;28;20037;-64
2022/04/18 05:50:04;;;;;;;10.45;4.90;;;;;;;8.94;65.33;101860.16;5054264;28;21631;-64
2022/04/18 05:52:30;;;;;;;8.10;5.05;;;;;;;9.02;66.43;101865.25;5073364;28;20036;-64
2022/04/18 05:54:55;;;;;;;10.60;6.03;;;;;;;9.11;64.68;101859.75;5057615;28;20033;-63
2022/04/18 05:57:21;;;;;;;9.27;5.35;;;;;;;9.20;63.74;101866.63;5057566;28;20495;-64
2022/04/18 05:59:47;;;;;;;9.55;5.63;;;;;;;9.30;62.65;101862.88;5057396;28;20036;-63
2022/04/18 06:02:13;;;;;;;9.98;5.30;;;;;;;9.41;62.24;101869.66;5063303;28;20598;-62
2022/04/18 06:04:39;;;;;;;9.18;5.13;;;;;;;9.48;60.61;101861.56;5056022;28;20037;-62
2022/04/18 06:07:04;;;;;;;9.32;5.50;;;;;;;9.57;60.58;101862.25;5063906;28;20040;-63
2022/04/18 06:09:30;;;;;;;9.93;5.63;;;;;;;9.67;59.86;101871.72;5067332;28;20044;-63
2022/04/18 06:11:55;;;;;;;10.32;5.95;;;;;;;9.76;59.17;101871.47;5062416;28;20035;-63
2022/04/18 06:14:21;;;;;;;11.80;7.00;;;;;;;9.82;59.51;101871.31;5070423;28;20292;-64
2022/04/18 06:16:46;;;;;;;12.07;6.55;;;;;;;9.89;57.56;101872.03;5073033;28;20036;-62
2022/04/18 06:19:12;;;;;;;10.65;6.05;;;;;;;10.00;58.17;101875.28;5068239;28;20028;-63
2022/04/18 06:21:37;;;;;;;6.07;4.00;;;;;;;10.11;57.84;101876.78;5056615;28;20031;-63
2022/04/18 06:24:02;;;;;;;6.10;4.07;;;;;;;10.20;58.60;101867.72;5066462;28;20070;-63
2022/04/18 06:26:28;;;;;;;6.55;3.83;;;;;;;10.26;58.80;101875.50;5070838;28;20033;-63
2022/04/18 06:28:54;;;;;;;8.13;4.93;;;;;;;10.35;58.34;101877.91;5071961;28;20032;-64
2022/04/18 06:31:19;;;;;;;6.20;3.58;;;;;;;10.40;57.18;101868.06;5072020;28;20045;-63
2022/04/18 06:33:44;;;;;;;7.35;3.47;;;;;;;10.41;57.05;101866.28;5072062;28;20029;-64
2022/04/18 06:36:10;;;;;;;7.05;3.63;;;;;;;10.46;56.71;101867.91;5071873;28;20040;-64
2022/04/18 06:38:35;;;;;;;6.68;3.67;;;;;;;10.51;55.76;101869.56;5071600;28;20040;-64
2022/04/18 06:41:02;;;;;;;5.68;3.70;;;;;;;10.56;56.34;101875.59;5064842;28;20035;-62
2022/04/18 06:43:27;;;;;;;6.00;3.80;;;;;;;10.62;57.09;101873.63;5075290;28;20025;-63
2022/04/18 06:45:53;;;;;;;6.32;4.05;;;;;;;10.67;55.86;101876.16;5050372;28;20108;-62
2022/04/18 06:48:19;;;;;;;6.32;3.72;;;;;;;10.71;57.18;101877.81;5068625;28;20025;-63
2022/04/18 06:50:45;;;;;;;6.07;3.70;;;;;;;10.75;56.31;101881.25;5082704;28;20027;-64
2022/04/18 06:53:11;;;;;;;7.03;3.80;;;;;;;10.86;56.18;101884.44;5082799;28;20123;-64
2022/04/18 06:58:21;;;;;;;8.45;4.40;;;;;;;11.05;55.65;101887.41;5077074;28;20101;-64
2022/04/18 07:00:46;;;;;;;8.30;4.32;;;;;;;11.14;55.35;101889.78;5079258;28;20429;-63
2022/04/18 07:03:11;;;;;;;6.47;4.15;;;;;;;11.21;56.25;101882.50;5088864;28;20120;-63
2022/04/18 07:05:41;;;;;;;7.15;4.05;;;;;;;11.31;57.38;101880.44;5086283;28;20032;-64
2022/04/18 07:08:07;;;;;;;8.63;4.53;;;;;;;11.41;56.08;101886.34;5081583;28;20033;-63
2022/04/18 07:10:32;;;;;;;7.60;4.30;;;;;;;11.52;54.31;101878.03;5088774;28;20549;-63
2022/04/18 07:12:58;;;;;;;9.13;4.80;;;;;;;11.59;51.92;101877.78;5084261;28;20020;-63
2022/04/18 07:15:23;;;;;;;7.03;4.28;;;;;;;11.69;52.68;101881.00;5086580;28;20036;-63
2022/04/18 07:17:48;;;;;;;5.95;3.90;;;;;;;11.86;53.36;101884.91;5086569;28;20028;-62
2022/04/18 07:20:14;;;;;;;6.68;3.70;;;;;;;11.94;52.48;101883.72;5087783;28;20097;-63
2022/04/18 07:22:40;;;;;;;4.43;3.53;;;;;;;12.12;51.22;101884.91;5068404;28;20115;-63
2022/04/18 07:25:06;;;;;;;8.57;4.00;;;;;;;12.24;50.44;101877.44;5083221;28;20118;-64
2022/04/18 07:27:32;;;;;;;7.68;3.90;;;;;;;12.38;49.89;101880.47;5093982;28;20016;-63
2022/04/18 07:29:57;;;;;;;5.95;3.78;;;;;;;12.53;49.14;101880.81;5086728;28;20518;-62
2022/04/18 07:32:22;;;;;;;7.82;3.80;;;;;;;12.57;49.17;101879.78;5077397;28;20032;-63
2022/04/18 07:34:48;;;;;;;5.82;3.78;;;;;;;12.70;48.82;101886.41;5093511;28;20532;-64
2022/04/18 07:37:13;;;;;;;7.40;4.03;;;;;;;12.79;48.87;101890.50;5079329;28;20064;-63
2022/04/18 07:39:38;;;;;;;6.68;4.05;;;;;;;12.86;48.18;101892.00;5067699;28;20545;-63
2022/04/18 07:42:04;;;;;;;6.47;3.90;;;;;;;13.00;48.92;101893.28;5086190;28;20083;-62
2022/04/18 07:44:30;;;;;;;7.90;4.45;;;;;;;13.16;48.28;101889.09;5095355;28;20039;-63
2022/04/18 07:46:55;;;;;;;9.75;4.07;;;;;;;13.26;47.97;101886.94;5093651;28;20028;-63
2022/04/18 07:49:21;;;;;;;7.38;3.90;;;;;;;13.31;45.54;101884.94;5089014;28;20315;-63
2022/04/18 07:51:46;;;;;;;7.50;4.53;;;;;;;13.46;46.23;101894.16;5083308;28;20119;-63
2022/04/18 07:54:14;;;;;;;8.40;4.18;;;;;;;13.56;46.38;101884.88;5086956;28;20054;-60
2022/04/18 07:56:40;;;;;;;6.78;3.10;;;;;;;13.69;40.64;101887.03;5084206;28;20037;-63
2022/04/18 07:59:05;;;;;;;5.97;2.90;;;;;;;13.84;38.16;101886.41;5074564;28;20028;-63
2022/04/18 08:01:31;;;;;;;3.92;2.60;;;;;;;13.99;36.56;101884.00;5074349;28;20041;-63
2022/04/18 08:04:00;;;;;;;5.25;2.70;;;;;;;14.20;36.43;101884.91;5073198;28;20096;-62
2022/04/18 08:06:25;;;;;;;5.03;2.70;;;;;;;14.35;36.08;101878.91;5072272;28;20040;-63
2022/04/18 08:08:51;;;;;;;4.00;2.42;;;;;;;14.51;35.75;101875.53;5074197;28;20029;-64
2022/04/18 08:11:17;;;;;;;3.95;2.53;;;;;;;14.70;35.55;101880.94;5074197;28;20021;-63
2022/04/18 08:13:43;;;;;;;4.32;2.47;;;;;;;14.90;35.27;101880.03;5062628;28;20035;-63
2022/04/18 08:16:09;;;;;;;4.65;2.40;;;;;;;14.93;35.38;101879.03;5066039;28;20025;-63
2022/04/18 08:18:39;;;;;;;6.95;2.58;;;;;;;15.10;34.29;101886.22;5063785;28;20039;-64
2022/04/18 08:21:05;;;;;;;3.22;2.30;;;;;;;15.13;33.80;101883.41;5074082;28;20074;-64
2022/04/18 08:23:32;;;;;;;4.93;2.83;;;;;;;15.15;34.70;101889.53;5056738;28;20098;-63
2022/04/18 08:25:57;;;;;;;6.10;2.80;;;;;;;15.11;34.02;101871.97;5073933;28;20127;-63
2022/04/18 08:28:23;;;;;;;4.55;2.53;;;;;;;15.33;34.14;101878.00;5072411;28;20033;-62
2022/04/18 08:30:48;;;;;;;3.65;2.60;;;;;;;15.37;33.03;101881.38;5074128;28;20031;-63
2022/04/18 08:33:13;;;;;;;16.10;4.75;;;;;;;15.65;32.25;101874.69;5072828;28;20024;-63
2022/04/18 08:35:39;;;;;;;4.75;2.88;;;;;;;15.82;31.51;101880.09;5072791;28;20144;-63
2022/04/18 08:38:04;;;;;;;4.47;2.97;;;;;;;15.96;32.38;101882.06;5071916;28;20135;-63
2022/04/18 08:40:30;;;;;;;4.20;2.67;;;;;;;16.01;32.36;101879.13;5072825;28;20048;-63
2022/04/18 08:42:56;;;;;;;5.32;2.90;;;;;;;16.14;31.59;101868.69;5074015;28;20036;-62
2022/04/18 08:45:24;;;;;;;4.38;2.95;;;;;;;16.27;31.49;101858.25;5065097;28;20104;-62
2022/04/18 08:53:29;;;;;;;6.20;3.05;;;;;;;16.49;31.57;101868.66;5073632;28;20035;-62
2022/04/18 08:55:55;;;;;;;4.80;2.97;;;;;;;16.61;31.48;101867.09;5073625;28;20463;-62
2022/04/18 08:58:22;;;;;;;5.63;3.05;;;;;;;16.51;31.49;101869.44;5072890;28;20024;-62
2022/04/18 09:00:48;;;;;;;3.90;2.83;;;;;;;16.52;31.52;101871.13;5073785;28;20036;-63
2022/04/18 09:03:13;;;;;;;5.65;3.25;;;;;;;16.49;31.30;101866.81;5073430;28;20081;-63
2022/04/18 09:05:39;;;;;;;5.50;3.25;;;;;;;16.70;32.13;101866.59;5070612;28;20052;-62
2022/04/18 09:08:07;;;;;;;5.78;3.45;;;;;;;16.84;32.34;101872.09;5066724;28;20037;-62
2022/04/18 09:10:34;;;;;;;6.53;3.35;;;;;;;17.33;30.95;101870.31;5072520;28;20019;-63
2022/04/18 09:13:14;;;;;;;5.70;3.50;;;;;;;17.63;30.61;101866.81;5072180;28;20041;-63
2022/04/18 09:15:43;;;;;;;4.70;3.25;;;;;;;17.85;30.25;101866.41;5072500;28;20052;-62
2022/04/18 09:18:09;;;;;;;4.25;3.08;;;;;;;18.66;28.99;101857.94;5071567;28;20025;-63
2022/04/18 09:20:52;;;;;;;5.03;3.30;;;;;;;19.75;27.44;101853.66;5063945;28;20385;-63
2022/04/18 09:23:23;;;;;;;5.15;3.60;;;;;;;20.48;26.85;101862.13;5056558;28;20077;-63
2022/04/18 09:25:59;;;;;;;6.25;3.30;;;;;;;21.34;25.58;101857.75;5062123;28;20034;-63
2022/04/18 09:28:31;;;;;;;4.88;3.40;;;;;;;21.81;25.00;101855.19;5062199;28;20032;-63
2022/04/18 09:30:59;;;;;;;4.95;3.33;;;;;;;21.77;24.21;101854.53;5060466;28;20029;-63
2022/04/18 09:33:29;;;;;;;5.32;3.38;;;;;;;21.06;24.16;101855.28;5051802;28;20043;-63
2022/04/18 09:36:26;;;;;;;3.53;3.00;;;;;;;21.14;24.32;101852.03;5053209;28;20034;-63
2022/04/18 09:38:56;;;;;;;4.45;3.20;;;;;;;21.56;24.18;101857.03;5025222;28;20119;-63
2022/04/18 09:41:24;;;;;;;5.32;2.85;;;;;;;21.87;23.85;101855.56;5059909;28;20119;-65
2022/04/18 09:43:52;;;;;;;4.28;2.80;;;;;;;21.82;22.04;101857.75;5059832;28;20029;-62
2022/04/18 09:46:18;;;;;;;5.38;2.83;;;;;;;21.68;22.51;101861.50;5067688;28;20083;-62
2022/04/18 09:48:45;;;;;;;5.10;2.83;;;;;;;21.75;23.07;101851.97;5065342;28;20351;-63
2022/04/18 09:51:15;;;;;;;3.53;2.70;;;;;;;21.69;22.91;101854.25;5059756;28;20123;-63
2022/04/18 09:53:46;;;;;;;5.28;2.75;;;;;;;21.89;22.30;101856.31;5063884;28;20060;-63
2022/04/18 09:56:16;;;;;;;5.03;2.70;;;;;;;21.92;22.45;101855.22;5062052;28;20478;-63
2022/04/18 09:58:43;;;;;;;3.35;2.80;;;;;;;22.22;22.91;101843.84;5060829;28;20075;-63
2022/04/18 10:01:09;;;;;;;5.28;2.92;;;;;;;22.51;21.64;101850.69;5066466;28;20064;-63
2022/04/18 10:03:35;;;;;;;4.57;2.55;;;;;;;22.25;21.20;101848.16;5071362;28;20071;-63
2022/04/18 10:06:02;;;;;;;3.70;2.45;;;;;;;22.57;21.98;101850.16;5068598;28;20056;-61
2022/04/18 10:08:28;;;;;;;3.80;2.50;;;;;;;22.69;22.17;101848.34;5071775;28;20027;-61
2022/04/18 10:10:57;;;;;;;5.90;3.03;;;;;;;23.18;21.14;101833.53;5071941;28;20475;-63
2022/04/18 10:13:22;;;;;;;3.90;2.70;;;;;;;24.10;20.45;101831.28;5072064;28;20056;-63
2022/04/18 10:15:49;;;;;;;4.28;2.60;;;;;;;24.87;19.93;101838.03;5072175;28;20122;-62
2022/04/18 10:18:16;;;;;;;5.13;2.78;;;;;;;24.82;19.35;101834.91;5068841;28;20020;-62
2022/04/18 10:21:06;;;;;;;4.55;2.75;;;;;;;24.77;19.96;101834.47;5061746;28;20051;-62
2022/04/18 10:23:46;;;;;;;4.35;2.88;;;;;;;24.81;19.59;101834.06;5058756;28;20031;-62
2022/04/18 10:26:33;;;;;;;4.93;3.30;;;;;;;24.57;19.09;101837.06;5067947;28;20028;-62
2022/04/18 10:29:12;;;;;;;7.32;3.42;;;;;;;25.17;20.26;101838.97;5056111;28;20297;-62
2022/04/18 10:31:40;;;;;;;8.10;3.30;;;;;;;25.59;19.28;101844.16;5066164;28;20031;-63
2022/04/18 10:34:06;;;;;;;4.28;2.90;;;;;;;26.00;19.07;101833.97;5071658;28;20025;-64
2022/04/18 10:36:33;;;;;;;3.90;2.80;;;;;;;26.40;19.34;101840.16;5071607;28;20025;-63
2022/04/18 10:39:04;;;;;;;4.72;2.60;;;;;;;26.60;17.69;101834.66;5071613;28;20094;-62
2022/04/18 10:41:35;;;;;;;4.00;2.47;;;;;;;26.57;17.39;101833.09;5065098;28;20091;-62
2022/04/18 10:44:06;;;;;;;3.88;2.90;;;;;;;26.38;18.34;101836.75;5071970;28;20037;-62
2022/04/18 10:46:32;;;;;;;4.28;2.45;;;;;;;26.60;18.02;101832.81;5071705;28;20062;-63
2022/04/18 10:49:15;;;;;;;4.07;2.35;;;;;;;26.03;17.43;101830.09;5071518;28;20028;-62
2022/04/18 10:51:41;;;;;;;3.15;2.30;;;;;;;25.84;17.94;101829.16;5050381;28;20186;-63
2022/04/18 10:54:19;;;;;;;5.05;2.45;;;;;;;26.14;16.80;101819.13;5050114;28;20029;-63
2022/04/18 10:57:02;;;;;;;4.82;2.30;;;;;;;26.14;18.35;101824.53;5051439;28;20153;-63
2022/04/18 10:59:36;;;;;;;3.22;2.00;;;;;;;26.71;15.46;101825.47;5051229;28;20021;-63
2022/04/18 11:02:06;;;;;;;2.45;1.90;;;;;;;26.30;16.39;101826.63;5052735;28;20039;-63
2022/04/18 11:04:53;;;;;;;3.75;2.20;;;;;;;26.75;15.87;101816.91;5056594;28;20029;-63
2022/04/18 11:07:18;;;;;;;4.15;2.30;;;;;;;26.66;15.40;101826.78;5055772;28;20047;-62
2022/04/18 11:09:46;;;;;;;4.38;2.40;;;;;;;26.64;15.43;101820.63;5068178;28;20041;-62
2022/04/18 11:12:19;;;;;;;3.92;2.50;;;;;;;26.91;15.41;101816.22;5070115;28;20383;-61
2022/04/18 11:15:04;;;;;;;2.97;2.20;;;;;;;26.55;16.74;101821.53;5069706;28;20028;-63
2022/04/18 11:17:42;;;;;;;3.03;2.40;;;;;;;26.15;16.48;101826.25;5071374;28;20536;-64
2022/04/18 11:20:32;;;;;;;3.20;2.30;;;;;;;26.50;15.57;101821.13;5071075;28;20072;-61
2022/04/18 11:23:27;;;;;;;4.33;2.40;;;;;;;27.05;16.87;101820.28;5071588;28;20025;-63
2022/04/18 11:25:58;;;;;;;4.20;2.10;;;;;;;27.44;15.35;101811.84;5070406;28;20033;-63
2022/04/18 11:28:34;;;;;;;3.88;2.25;;;;;;;27.14;15.04;101813.06;5066993;28;20021;-61
2022/04/18 11:31:00;;;;;;;4.25;2.67;;;;;;;26.68;15.80;101823.91;5060098;28;20025;-62
2022/04/18 11:33:26;;;;;;;3.67;2.65;;;;;;;26.55;16.89;101816.09;5051062;28;20028;-62
2022/04/18 11:35:51;;;;;;;4.88;2.60;;;;;;;26.83;15.79;101807.97;5063201;28;20122;-63
2022/04/18 11:38:16;;;;;;;3.67;2.30;;;;;;;27.15;16.71;101809.34;5070698;28;20049;-62
2022/04/18 11:40:44;;;;;;;3.25;2.63;;;;;;;26.92;16.48;101803.47;5071346;28;20032;-62
2022/04/18 11:43:15;;;;;;;3.63;3.00;;;;;;;26.49;17.11;101812.09;5072946;28;20055;-64
2022/04/18 11:45:41;;;;;;;4.30;2.65;;;;;;;26.95;15.38;101811.31;5065602;28;20391;-62